createdAt,value
2022-07-29T00:00:57.173Z,96.90
2022-07-29T00:03:43.332Z,97.00
2022-07-29T00:06:29.517Z,97.20
2022-07-29T00:09:15.558Z,97.30
2022-07-29T00:12:02.207Z,97.50
2022-07-29T00:14:48.779Z,97.60
2022-07-29T00:17:35.123Z,97.80
2022-07-29T00:20:21.291Z,97.90
2022-07-29T00:23:07.995Z,98.00
2022-07-29T00:25:59.983Z,98.10
2022-07-29T00:28:45.925Z,98.20
2022-07-29T00:31:32.113Z,98.30
2022-07-29T00:34:37.536Z,98.40
2022-07-29T00:37:23.539Z,98.60
2022-07-29T00:40:10.480Z,98.70
2022-07-29T00:42:56.351Z,98.80
2022-07-29T00:45:42.807Z,98.90
2022-07-29T00:48:28.849Z,99.00
2022-07-29T00:51:15.105Z,99.10
2022-07-29T00:54:01.286Z,99.20
2022-07-29T00:56:47.743Z,99.30
2022-07-29T00:59:34.722Z,99.40
2022-07-29T01:02:21.874Z,99.50
2022-07-29T01:05:08.787Z,99.60
2022-07-29T01:07:56.115Z,99.70
2022-07-29T01:10:43.862Z,99.80
2022-07-29T01:13:31.999Z,99.80
2022-07-29T01:16:33.782Z,99.90
2022-07-29T01:19:47.338Z,99.90
2022-07-29T01:22:42.693Z,99.90
2022-07-29T01:25:40.178Z,99.80
2022-07-29T01:28:35.302Z,99.70
2022-07-29T01:31:28.295Z,99.70
2022-07-29T01:34:24.706Z,99.70
2022-07-29T01:37:19.692Z,99.70
2022-07-29T01:40:08.633Z,99.70
2022-07-29T01:42:59.007Z,99.70
2022-07-29T01:45:51.236Z,99.70
2022-07-29T01:49:09.861Z,99.80
2022-07-29T01:52:01.619Z,99.90
2022-07-29T01:54:59.706Z,99.90
2022-07-29T01:57:48.912Z,99.90
2022-07-29T02:00:36.415Z,99.90
2022-07-29T02:03:23.600Z,99.90
2022-07-29T02:06:11.743Z,99.90
2022-07-29T02:08:59.534Z,99.90
2022-07-29T02:11:57.039Z,99.90
2022-07-29T02:14:48.430Z,99.90
2022-07-29T02:17:41.874Z,99.90
2022-07-29T02:20:29.867Z,99.90
2022-07-29T02:23:24.865Z,99.90
2022-07-29T02:26:11.331Z,99.90
2022-07-29T02:29:00.002Z,99.90
2022-07-29T02:31:48.230Z,99.90
2022-07-29T02:34:35.905Z,99.90
2022-07-29T02:37:23.863Z,99.90
2022-07-29T02:40:12.565Z,99.90
2022-07-29T02:42:59.839Z,99.90
2022-07-29T02:45:51.824Z,99.90
2022-07-29T02:49:10.359Z,99.90
2022-07-29T02:52:02.443Z,99.90
2022-07-29T02:54:54.421Z,99.90
2022-07-29T02:58:02.411Z,99.90
2022-07-29T03:00:49.868Z,99.90
2022-07-29T03:03:38.951Z,99.90
2022-07-29T03:06:38.188Z,99.90
2022-07-29T03:09:26.339Z,99.90
2022-07-29T03:12:13.249Z,99.90
2022-07-29T03:15:00.415Z,99.90
2022-07-29T03:17:47.784Z,99.90
2022-07-29T03:20:34.185Z,99.90
2022-07-29T03:23:23.575Z,99.90
2022-07-29T03:26:09.381Z,99.90
2022-07-29T03:28:55.942Z,99.90
2022-07-29T03:31:41.966Z,99.90
2022-07-29T03:34:29.824Z,99.90
2022-07-29T03:37:15.828Z,99.90
2022-07-29T03:40:04.381Z,99.90
2022-07-29T03:42:52.635Z,99.90
2022-07-29T03:45:41.715Z,99.90
2022-07-29T03:48:30.301Z,99.90
2022-07-29T03:51:16.795Z,99.90
2022-07-29T03:54:09.882Z,99.90
2022-07-29T03:57:00.954Z,99.90
2022-07-29T03:59:48.296Z,99.90
2022-07-29T04:02:34.890Z,99.90
2022-07-29T04:05:21.228Z,99.90
2022-07-29T04:08:07.511Z,99.90
2022-07-29T04:10:54.005Z,99.90
2022-07-29T04:13:39.918Z,99.90
2022-07-29T04:16:25.864Z,99.90
2022-07-29T04:19:12.278Z,99.90
2022-07-29T04:22:00.415Z,99.90
2022-07-29T04:24:46.280Z,99.90
2022-07-29T04:27:32.998Z,99.90
2022-07-29T04:30:19.501Z,99.90
2022-07-29T04:33:07.874Z,99.90
2022-07-29T04:35:54.920Z,99.90
2022-07-29T04:38:41.840Z,99.90
2022-07-29T04:41:32.787Z,99.90
2022-07-29T04:44:20.124Z,99.90
2022-07-29T04:47:09.693Z,99.90
2022-07-29T04:49:57.146Z,99.90
2022-07-29T04:52:44.533Z,99.90
2022-07-29T04:55:33.940Z,99.90
2022-07-29T04:58:19.857Z,99.90
2022-07-29T05:01:05.891Z,99.90
2022-07-29T05:03:54.862Z,99.90
2022-07-29T05:06:43.080Z,99.90
2022-07-29T05:09:28.942Z,99.90
2022-07-29T05:12:14.982Z,99.90
2022-07-29T05:15:00.885Z,99.90
2022-07-29T05:17:46.977Z,99.90
2022-07-29T05:20:33.940Z,99.90
2022-07-29T05:23:20.690Z,99.90
2022-07-29T05:26:07.051Z,99.90
2022-07-29T05:28:53.432Z,99.90
2022-07-29T05:31:39.580Z,99.90
2022-07-29T05:34:26.067Z,99.90
2022-07-29T05:37:14.321Z,99.90
2022-07-29T05:40:00.707Z,99.90
2022-07-29T05:42:47.274Z,99.90
2022-07-29T05:45:33.304Z,99.90
2022-07-29T05:48:35.380Z,99.90
2022-07-29T05:51:21.934Z,99.90
2022-07-29T05:54:08.142Z,99.90
2022-07-29T05:56:54.035Z,99.90
2022-07-29T05:59:40.172Z,99.90
2022-07-29T06:02:26.152Z,99.90
2022-07-29T06:05:15.582Z,99.90
2022-07-29T06:08:04.072Z,99.90
2022-07-29T06:10:50.105Z,99.90
2022-07-29T06:13:35.960Z,99.90
2022-07-29T06:16:29.576Z,99.90
2022-07-29T06:19:16.778Z,99.90
2022-07-29T06:22:03.233Z,99.90
2022-07-29T06:24:49.184Z,99.90
2022-07-29T06:27:35.022Z,99.90
2022-07-29T06:30:22.648Z,99.90
2022-07-29T06:33:08.634Z,99.90
2022-07-29T06:35:55.094Z,99.90
2022-07-29T06:38:44.871Z,99.90
2022-07-29T06:41:36.462Z,99.90
2022-07-29T06:44:28.855Z,99.90
2022-07-29T06:47:14.941Z,99.90
2022-07-29T06:50:01.150Z,99.90
2022-07-29T06:52:47.123Z,99.90
2022-07-29T06:55:33.469Z,99.90
2022-07-29T06:58:21.381Z,99.90
2022-07-29T07:01:14.992Z,99.90
2022-07-29T07:04:01.264Z,99.90
2022-07-29T07:06:47.418Z,99.90
2022-07-29T07:09:40.118Z,99.90
2022-07-29T07:12:27.431Z,99.90
2022-07-29T07:15:13.637Z,99.90
2022-07-29T07:18:00.002Z,99.90
2022-07-29T07:20:46.158Z,99.90
2022-07-29T07:23:32.642Z,99.90
2022-07-29T07:26:18.946Z,99.90
2022-07-29T07:29:04.896Z,99.90
2022-07-29T07:31:51.068Z,99.90
2022-07-29T07:34:38.905Z,99.90
2022-07-29T07:37:25.700Z,99.90
2022-07-29T07:40:12.643Z,99.90
2022-07-29T07:43:04.820Z,99.90
2022-07-29T07:45:51.059Z,99.90
2022-07-29T07:48:37.365Z,99.90
2022-07-29T07:51:23.429Z,99.90
2022-07-29T07:54:09.519Z,99.90
2022-07-29T07:56:55.451Z,99.90
2022-07-29T07:59:42.353Z,99.90
2022-07-29T08:02:31.486Z,99.90
2022-07-29T08:05:20.252Z,99.90
2022-07-29T08:08:06.993Z,99.90
2022-07-29T08:10:55.591Z,99.90
2022-07-29T08:13:42.222Z,99.90
2022-07-29T08:16:29.389Z,99.90
2022-07-29T08:19:15.697Z,99.90
2022-07-29T08:22:01.961Z,99.90
2022-07-29T08:24:53.396Z,99.90
2022-07-29T08:27:43.738Z,99.90
2022-07-29T08:30:30.694Z,99.90
2022-07-29T08:33:16.793Z,99.50
2022-07-29T08:36:03.270Z,99.20
2022-07-29T08:38:50.613Z,99.00
2022-07-29T08:41:37.202Z,98.90
2022-07-29T08:44:30.410Z,98.60
2022-07-29T08:47:18.067Z,98.60
2022-07-29T08:50:04.482Z,98.50
2022-07-29T08:52:50.996Z,98.00
2022-07-29T08:55:37.945Z,97.40
2022-07-29T08:58:25.987Z,96.90
2022-07-29T09:01:17.119Z,96.60
2022-07-29T09:04:08.764Z,95.90
2022-07-29T09:06:58.007Z,95.30
2022-07-29T09:09:44.731Z,94.90
2022-07-29T09:12:33.753Z,94.60
2022-07-29T09:15:23.918Z,94.30
2022-07-29T09:18:20.638Z,94.10
2022-07-29T09:21:36.766Z,94.00
2022-07-29T09:24:35.450Z,94.00
2022-07-29T09:27:29.773Z,94.00
2022-07-29T09:30:15.617Z,94.10
2022-07-29T09:33:11.777Z,94.10
2022-07-29T09:36:09.172Z,93.90
2022-07-29T09:39:00.889Z,93.90
2022-07-29T09:41:53.828Z,93.50
2022-07-29T09:44:45.677Z,93.40
2022-07-29T09:47:46.098Z,93.40
2022-07-29T09:50:41.043Z,93.20
2022-07-29T09:53:38.471Z,93.20
2022-07-29T09:56:41.494Z,93.30
2022-07-29T09:59:29.141Z,93.30
2022-07-29T10:02:21.980Z,92.90
2022-07-29T10:05:21.072Z,92.70
2022-07-29T10:08:08.500Z,92.70
2022-07-29T10:11:10.916Z,92.60
2022-07-29T10:13:57.759Z,92.10
2022-07-29T10:16:44.646Z,91.90
2022-07-29T10:19:32.447Z,91.60
2022-07-29T10:22:43.597Z,91.40
2022-07-29T10:25:27.202Z,91.30
2022-07-29T10:28:16.500Z,91.20
2022-07-29T10:31:07.548Z,90.90
2022-07-29T10:34:24.837Z,90.90
2022-07-29T10:37:27.278Z,90.60
2022-07-29T10:40:45.239Z,90.60
2022-07-29T10:43:36.993Z,90.50
2022-07-29T10:46:25.696Z,90.30
2022-07-29T10:49:16.097Z,90.00
2022-07-29T10:52:13.172Z,89.60
2022-07-29T10:55:01.266Z,89.50
2022-07-29T10:58:18.022Z,89.50
2022-07-29T11:01:37.010Z,89.10
2022-07-29T11:04:47.081Z,88.90
2022-07-29T11:07:42.650Z,88.50
2022-07-29T11:10:32.674Z,88.70
2022-07-29T11:13:55.708Z,87.60
2022-07-29T11:20:42.773Z,85.50
2022-07-29T11:23:33.350Z,84.20
2022-07-29T11:26:22.948Z,83.60
2022-07-29T11:29:24.273Z,83.00
2022-07-29T11:32:22.582Z,82.40
2022-07-29T11:38:32.951Z,82.10
2022-07-29T11:41:18.866Z,82.00
2022-07-29T11:44:05.956Z,81.80
2022-07-29T11:46:55.618Z,81.90
2022-07-29T11:49:48.186Z,81.90
2022-07-29T11:52:38.262Z,81.50
2022-07-29T11:55:50.996Z,81.10
2022-07-29T11:58:38.322Z,80.50
2022-07-29T12:01:25.537Z,80.60
2022-07-29T12:04:14.863Z,80.00
2022-07-29T12:07:04.611Z,79.60
2022-07-29T12:09:56.896Z,78.30
2022-07-29T12:12:43.446Z,78.00
2022-07-29T12:15:45.586Z,78.10
2022-07-29T12:18:33.158Z,77.60
2022-07-29T12:21:19.576Z,77.50
2022-07-29T12:24:11.988Z,77.40
2022-07-29T12:27:00.207Z,77.50
2022-07-29T12:30:17.413Z,77.00
2022-07-29T12:33:12.493Z,76.60
2022-07-29T12:36:12.819Z,76.30
2022-07-29T12:39:04.778Z,76.00
2022-07-29T12:41:50.788Z,75.50
2022-07-29T12:44:51.199Z,75.00
2022-07-29T12:47:53.347Z,74.30
2022-07-29T12:51:10.006Z,74.00
2022-07-29T12:54:06.769Z,74.20
2022-07-29T12:57:00.612Z,73.70
2022-07-29T13:00:00.289Z,73.50
2022-07-29T13:02:56.547Z,73.20
2022-07-29T13:05:49.436Z,73.10
2022-07-29T13:08:38.394Z,73.00
2022-07-29T13:11:36.795Z,72.60
2022-07-29T13:14:41.228Z,71.70
2022-07-29T13:17:32.650Z,70.90
2022-07-29T13:20:19.234Z,71.00
2022-07-29T13:23:05.158Z,71.00
2022-07-29T13:25:51.194Z,71.00
2022-07-29T13:28:37.506Z,71.20
2022-07-29T13:31:23.611Z,71.60
2022-07-29T13:34:09.539Z,72.20
2022-07-29T13:36:55.775Z,72.50
2022-07-29T13:39:41.856Z,71.80
2022-07-29T13:42:38.427Z,71.70
2022-07-29T13:45:24.909Z,71.60
2022-07-29T13:48:15.028Z,71.20
2022-07-29T13:51:01.170Z,70.80
2022-07-29T13:53:47.499Z,70.20
2022-07-29T13:56:33.986Z,68.80
2022-07-29T13:59:20.371Z,68.10
2022-07-29T14:02:06.912Z,66.70
2022-07-29T14:04:54.396Z,66.10
2022-07-29T14:07:43.606Z,66.30
2022-07-29T14:10:29.700Z,66.70
2022-07-29T14:13:24.384Z,67.00
2022-07-29T14:16:11.676Z,67.10
2022-07-29T14:18:57.881Z,66.90
2022-07-29T14:21:44.365Z,66.90
2022-07-29T14:24:32.324Z,66.90
2022-07-29T14:27:18.427Z,66.90
2022-07-29T14:30:04.903Z,67.30
2022-07-29T14:32:51.151Z,67.10
2022-07-29T14:35:37.372Z,66.40
2022-07-29T14:38:23.522Z,66.20
2022-07-29T14:41:13.291Z,65.90
2022-07-29T14:44:01.552Z,65.50
2022-07-29T14:46:47.825Z,65.20
2022-07-29T14:49:36.419Z,64.50
2022-07-29T14:52:22.781Z,64.10
2022-07-29T14:55:19.880Z,63.90
2022-07-29T14:58:11.077Z,63.70
2022-07-29T15:00:59.465Z,63.40
2022-07-29T15:03:51.459Z,63.10
2022-07-29T15:06:37.528Z,62.90
2022-07-29T15:09:24.298Z,61.90
2022-07-29T15:12:11.565Z,61.40
2022-07-29T15:14:57.491Z,60.60
2022-07-29T15:17:43.890Z,59.80
2022-07-29T15:20:30.622Z,59.50
2022-07-29T15:23:16.711Z,59.40
2022-07-29T15:26:03.675Z,59.50
2022-07-29T15:28:50.131Z,59.10
2022-07-29T15:31:36.563Z,59.00
2022-07-29T15:34:26.458Z,59.00
2022-07-29T15:37:12.786Z,59.00
2022-07-29T15:40:00.184Z,59.30
2022-07-29T15:42:46.411Z,59.10
2022-07-29T15:45:40.872Z,58.50
2022-07-29T15:48:27.367Z,57.60
2022-07-29T15:51:13.456Z,57.30
2022-07-29T15:54:01.539Z,57.30
2022-07-29T15:56:47.861Z,57.30
2022-07-29T15:59:34.762Z,57.30
2022-07-29T16:02:20.897Z,57.30
2022-07-29T16:05:09.407Z,57.50
2022-07-29T16:07:55.969Z,57.70
2022-07-29T16:10:42.022Z,58.10
2022-07-29T16:13:28.317Z,58.40
2022-07-29T16:16:16.812Z,58.60
2022-07-29T16:19:03.744Z,59.00
2022-07-29T16:21:50.148Z,59.30
2022-07-29T16:24:36.491Z,59.70
2022-07-29T16:27:26.977Z,60.10
2022-07-29T16:30:23.085Z,60.50
2022-07-29T16:33:09.558Z,60.70
2022-07-29T16:35:55.883Z,60.70
2022-07-29T16:38:47.275Z,60.70
2022-07-29T16:41:33.589Z,61.20
2022-07-29T16:44:19.709Z,61.40
2022-07-29T16:47:11.647Z,61.50
2022-07-29T16:50:12.597Z,61.80
2022-07-29T16:53:02.731Z,61.90
2022-07-29T16:55:48.889Z,61.50
2022-07-29T16:58:34.844Z,61.00
2022-07-29T17:01:21.428Z,61.00
2022-07-29T17:04:07.827Z,60.90
2022-07-29T17:06:55.546Z,61.70
2022-07-29T17:09:42.346Z,63.00
2022-07-29T17:12:28.762Z,64.10
2022-07-29T17:15:16.769Z,65.10
2022-07-29T17:18:03.310Z,66.00
2022-07-29T17:20:58.876Z,66.60
2022-07-29T17:23:45.661Z,67.00
2022-07-29T17:26:32.084Z,67.00
2022-07-29T17:29:18.552Z,67.20
2022-07-29T17:32:07.783Z,67.70
2022-07-29T17:34:54.685Z,68.30
2022-07-29T17:37:41.064Z,68.70
2022-07-29T17:40:27.490Z,69.10
2022-07-29T17:43:13.625Z,69.50
2022-07-29T17:45:59.718Z,69.80
2022-07-29T17:48:46.058Z,70.30
2022-07-29T17:51:32.682Z,70.70
2022-07-29T17:54:18.855Z,71.20
2022-07-29T17:57:08.277Z,71.60
2022-07-29T17:59:54.537Z,72.00
2022-07-29T18:02:41.883Z,72.50
2022-07-29T18:05:27.990Z,73.00
2022-07-29T18:08:14.465Z,73.50
2022-07-29T18:11:00.561Z,73.90
2022-07-29T18:13:47.069Z,74.30
2022-07-29T18:16:33.452Z,74.70
2022-07-29T18:19:19.585Z,75.00
2022-07-29T18:22:07.345Z,75.50
2022-07-29T18:24:53.489Z,75.70
2022-07-29T18:27:39.856Z,75.90
2022-07-29T18:30:26.695Z,76.10
2022-07-29T18:33:21.708Z,76.20
2022-07-29T18:36:11.459Z,76.40
2022-07-29T18:38:58.316Z,76.60
2022-07-29T18:41:50.350Z,76.80
2022-07-29T18:44:43.776Z,77.00
2022-07-29T18:47:36.733Z,77.20
2022-07-29T18:50:29.647Z,77.50
2022-07-29T18:53:16.266Z,77.70
2022-07-29T18:56:04.548Z,78.00
2022-07-29T18:58:50.766Z,78.30
2022-07-29T19:01:37.882Z,78.80
2022-07-29T19:04:24.138Z,79.20
2022-07-29T19:07:10.389Z,79.80
2022-07-29T19:09:56.435Z,80.60
2022-07-29T19:12:42.465Z,81.50
2022-07-29T19:15:28.788Z,82.10
2022-07-29T19:18:14.831Z,82.30
2022-07-29T19:21:01.032Z,82.40
2022-07-29T19:24:05.220Z,82.40
2022-07-29T19:26:54.458Z,82.40
2022-07-29T19:29:40.748Z,82.50
2022-07-29T19:32:29.849Z,82.70
2022-07-29T19:35:25.229Z,83.00
2022-07-29T19:38:12.190Z,83.10
2022-07-29T19:40:58.630Z,83.40
2022-07-29T19:43:51.442Z,83.60
2022-07-29T19:46:42.718Z,83.80
2022-07-29T19:49:29.220Z,84.20
2022-07-29T19:52:15.700Z,84.60
2022-07-29T19:55:07.379Z,84.90
2022-07-29T19:57:54.591Z,85.30
2022-07-29T20:00:41.768Z,85.60
2022-07-29T20:03:30.195Z,85.90
2022-07-29T20:06:16.479Z,86.10
2022-07-29T20:09:05.678Z,86.30
2022-07-29T20:11:51.851Z,86.70
2022-07-29T20:14:38.393Z,87.10
2022-07-29T20:17:25.828Z,87.40
2022-07-29T20:20:12.392Z,87.80
2022-07-29T20:22:59.342Z,88.30
2022-07-29T20:25:45.832Z,88.70
2022-07-29T20:28:31.783Z,89.20
2022-07-29T20:31:18.899Z,89.60
2022-07-29T20:34:06.241Z,90.00
2022-07-29T20:36:52.264Z,90.30
2022-07-29T20:39:39.075Z,90.20
2022-07-29T20:42:25.264Z,90.40
2022-07-29T20:45:11.789Z,90.50
2022-07-29T20:47:58.734Z,90.60
2022-07-29T20:50:46.241Z,90.70
2022-07-29T20:53:33.863Z,90.90
2022-07-29T20:56:20.212Z,90.90
2022-07-29T20:59:06.324Z,91.00
2022-07-29T21:01:57.592Z,91.10
2022-07-29T21:04:46.116Z,91.20
2022-07-29T21:07:32.137Z,91.40
2022-07-29T21:10:20.841Z,91.50
2022-07-29T21:13:09.562Z,91.60
2022-07-29T21:16:02.609Z,91.60
2022-07-29T21:18:51.096Z,91.80
2022-07-29T21:21:37.442Z,91.90
2022-07-29T21:24:24.861Z,92.00
2022-07-29T21:27:29.313Z,92.10
2022-07-29T21:30:15.120Z,92.10
2022-07-29T21:33:03.353Z,92.10
2022-07-29T21:38:56.629Z,92.20
2022-07-29T21:41:42.952Z,92.30
2022-07-29T21:44:31.336Z,92.30
2022-07-29T21:47:19.474Z,92.30
2022-07-29T21:50:06.721Z,92.30
2022-07-29T21:52:52.802Z,92.40
2022-07-29T21:55:41.979Z,92.40
2022-07-29T21:58:30.877Z,92.40
2022-07-29T22:01:20.183Z,92.40
2022-07-29T22:04:06.649Z,92.40
2022-07-29T22:06:52.844Z,92.40
2022-07-29T22:09:39.328Z,92.40
2022-07-29T22:12:56.475Z,92.30
2022-07-29T22:15:47.080Z,92.40
2022-07-29T22:18:33.633Z,92.30
2022-07-29T22:21:19.713Z,92.20
2022-07-29T22:24:06.154Z,92.10
2022-07-29T22:27:02.361Z,92.00
2022-07-29T22:29:48.550Z,92.00
2022-07-29T22:32:41.538Z,91.90
2022-07-29T22:35:28.127Z,91.90
2022-07-29T22:38:17.665Z,91.90
2022-07-29T22:41:04.291Z,91.80
2022-07-29T22:43:50.740Z,91.80
2022-07-29T22:46:36.931Z,91.80
2022-07-29T22:49:22.942Z,91.70
2022-07-29T22:52:09.953Z,91.70
2022-07-29T22:54:55.946Z,91.70
2022-07-29T22:57:42.215Z,91.70
2022-07-29T23:00:28.331Z,91.80
2022-07-29T23:03:14.325Z,91.80
2022-07-29T23:06:09.043Z,91.90
2022-07-29T23:08:55.252Z,92.00
2022-07-29T23:11:41.167Z,92.10
2022-07-29T23:14:27.304Z,92.10
2022-07-29T23:17:13.646Z,92.20
2022-07-29T23:20:00.805Z,92.20
2022-07-29T23:22:47.541Z,92.30
2022-07-29T23:25:33.423Z,92.30
2022-07-29T23:28:19.652Z,92.30
2022-07-29T23:31:05.947Z,92.30
2022-07-29T23:33:51.966Z,92.40
2022-07-29T23:36:37.922Z,92.50
2022-07-29T23:39:24.306Z,92.60
2022-07-29T23:42:10.614Z,92.70
2022-07-29T23:44:56.683Z,92.80
2022-07-29T23:47:43.449Z,92.80
2022-07-29T23:50:29.359Z,92.90
2022-07-29T23:53:15.463Z,92.90
2022-07-29T23:56:01.349Z,93.00
2022-07-29T23:58:47.918Z,93.00
